Time;durP1;ratioP1;P1;durP2;ratioP2;P2;SDS_P1;SDS_P2;PMS_P1;PMS_P2;Temp;Humidity;BMP_temperature;BMP_pressure;BME280_temperature;BME280_humidity;BME280_pressure;Samples;Min_cycle;Max_cycle;Signal;HPM_P1;HPM_P2
2022/11/18 00:02:02;;;;;;;5.47;2.60;;;;;;;;;;4900016;29;20049;-64
2022/11/18 00:04:28;;;;;;;5.03;2.40;;;;;;;;;;4914478;29;20402;-64
2022/11/18 00:06:55;;;;;;;5.95;2.13;;;;;;;;;;4914424;29;20099;-64
2022/11/18 00:09:21;;;;;;;4.45;2.08;;;;;;;;;;4898237;29;20079;-63
2022/11/18 00:14:33;;;;;;;7.38;2.95;;;;;;;;;;4899808;29;20497;-64
2022/11/18 00:17:00;;;;;;;6.15;2.30;;;;;;;;;;4899779;29;20107;-64
2022/11/18 00:19:28;;;;;;;4.35;2.17;;;;;;;;;;4899173;29;20044;-64
2022/11/18 00:21:55;;;;;;;9.65;2.55;;;;;;;;;;4899612;29;20104;-64
2022/11/18 00:24:22;;;;;;;7.63;2.15;;;;;;;;;;4898454;29;20040;-64
2022/11/18 00:26:49;;;;;;;5.63;2.17;;;;;;;;;;4898395;29;20044;-64
2022/11/18 00:29:15;;;;;;;4.93;2.00;;;;;;;;;;4899083;29;20458;-63
2022/11/18 00:31:43;;;;;;;3.30;1.77;;;;;;;;;;4899599;29;20391;-64
2022/11/18 00:34:10;;;;;;;3.97;1.80;;;;;;;;;;4913835;29;20100;-64
2022/11/18 00:36:37;;;;;;;9.02;2.00;;;;;;;;;;4899346;29;20497;-64
2022/11/18 00:39:03;;;;;;;11.43;3.42;;;;;;;;;;4898814;29;20036;-64
2022/11/18 00:42:50;;;;;;;4.75;1.90;;;;;;;;;;4899303;29;20048;-64
2022/11/18 00:44:16;;;;;;;7.88;2.83;;;;;;;;;;4899207;29;20497;-64
2022/11/18 00:46:43;;;;;;;5.70;2.28;;;;;;;;;;4913734;29;20140;-64
2022/11/18 00:49:09;;;;;;;7.68;2.92;;;;;;;;;;4913126;29;20104;-64
2022/11/18 00:51:36;;;;;;;4.10;2.20;;;;;;;;;;4913447;29;20048;-64
2022/11/18 00:54:02;;;;;;;8.65;2.33;;;;;;;;;;4913598;29;20044;-64
2022/11/18 00:56:29;;;;;;;7.25;2.50;;;;;;;;;;4899129;29;20537;-65
2022/11/18 00:58:55;;;;;;;5.13;2.70;;;;;;;;;;4897158;29;20302;-63
2022/11/18 01:01:22;;;;;;;6.15;2.35;;;;;;;;;;4898862;29;20045;-64
2022/11/18 01:03:49;;;;;;;6.03;2.40;;;;;;;;;;4913675;29;20523;-65
2022/11/18 01:06:15;;;;;;;5.47;1.70;;;;;;;;;;4899181;29;20041;-64
2022/11/18 01:08:41;;;;;;;7.82;2.40;;;;;;;;;;4898642;29;20048;-64
2022/11/18 01:13:53;;;;;;;6.68;3.00;;;;;;;;;;4898903;29;20053;-64
2022/11/18 01:16:20;;;;;;;6.22;2.40;;;;;;;;;;4899147;29;20044;-64
2022/11/18 01:18:47;;;;;;;4.75;2.30;;;;;;;;;;4898292;29;20403;-64
2022/11/18 01:21:13;;;;;;;8.32;2.40;;;;;;;;;;4898539;29;20048;-64
2022/11/18 01:23:40;;;;;;;5.35;2.17;;;;;;;;;;4912943;29;20093;-64
2022/11/18 01:26:08;;;;;;;6.93;2.40;;;;;;;;;;4898623;29;20040;-64
2022/11/18 01:28:35;;;;;;;7.60;2.30;;;;;;;;;;4897864;29;20093;-64
2022/11/18 01:31:02;;;;;;;6.22;2.70;;;;;;;;;;4898546;29;20049;-64
2022/11/18 01:33:29;;;;;;;7.05;3.05;;;;;;;;;;4898459;29;20056;-64
2022/11/18 01:35:55;;;;;;;4.30;1.92;;;;;;;;;;4898430;29;20053;-64
2022/11/18 01:38:22;;;;;;;5.85;2.20;;;;;;;;;;4911763;29;20470;-64
2022/11/18 01:40:48;;;;;;;6.75;2.40;;;;;;;;;;4912628;29;20044;-64
2022/11/18 01:43:16;;;;;;;10.95;3.20;;;;;;;;;;4896920;29;20053;-64
2022/11/18 01:45:44;;;;;;;5.85;2.90;;;;;;;;;;4896892;29;20053;-64
2022/11/18 01:48:25;;;;;;;5.90;2.80;;;;;;;;;;4911993;29;20104;-63
2022/11/18 01:50:54;;;;;;;5.57;2.75;;;;;;;;;;4898165;29;20055;-63
2022/11/18 01:53:24;;;;;;;7.32;2.88;;;;;;;;;;4897901;29;20104;-66
2022/11/18 01:55:51;;;;;;;8.95;2.78;;;;;;;;;;4898070;29;20055;-63
2022/11/18 01:58:22;;;;;;;5.32;2.83;;;;;;;;;;4912003;29;20052;-63
2022/11/18 02:00:49;;;;;;;6.32;3.53;;;;;;;;;;4897766;29;20056;-64
2022/11/18 02:03:16;;;;;;;8.00;2.88;;;;;;;;;;4897638;29;20127;-63
2022/11/18 02:05:45;;;;;;;6.35;2.30;;;;;;;;;;4896750;29;20454;-64
2022/11/18 02:08:12;;;;;;;8.77;3.17;;;;;;;;;;4897359;29;20112;-63
2022/11/18 02:10:38;;;;;;;5.60;3.05;;;;;;;;;;4898102;29;20053;-64
2022/11/18 02:13:04;;;;;;;6.95;3.40;;;;;;;;;;4899083;29;20454;-64
2022/11/18 02:15:36;;;;;;;7.63;2.65;;;;;;;;;;4897815;29;20092;-64
2022/11/18 02:18:09;;;;;;;8.77;3.55;;;;;;;;;;4897201;29;20052;-64
2022/11/18 02:20:38;;;;;;;5.30;2.75;;;;;;;;;;4913116;29;20409;-64
2022/11/18 02:23:23;;;;;;;6.35;3.20;;;;;;;;;;4897967;29;20040;-64
2022/11/18 02:25:49;;;;;;;11.63;3.53;;;;;;;;;;4897667;29;20562;-64
2022/11/18 02:28:22;;;;;;;5.80;3.25;;;;;;;;;;4897189;29;20447;-64
2022/11/18 02:30:48;;;;;;;7.63;3.00;;;;;;;;;;4911837;29;20071;-64
2022/11/18 02:33:18;;;;;;;5.78;2.80;;;;;;;;;;4897235;29;20052;-64
2022/11/18 02:36:01;;;;;;;4.60;3.00;;;;;;;;;;4897352;29;20049;-64
2022/11/18 02:38:30;;;;;;;6.32;3.33;;;;;;;;;;4896856;29;20104;-64
2022/11/18 02:41:08;;;;;;;8.95;3.25;;;;;;;;;;4911730;29;20041;-64
2022/11/18 02:43:37;;;;;;;10.48;3.05;;;;;;;;;;4897171;29;20048;-63
2022/11/18 02:46:06;;;;;;;9.80;3.25;;;;;;;;;;4911859;29;20040;-64
2022/11/18 02:48:34;;;;;;;6.28;3.00;;;;;;;;;;4896624;29;20566;-64
2022/11/18 02:51:03;;;;;;;5.95;3.55;;;;;;;;;;4896318;29;20510;-64
2022/11/18 02:53:30;;;;;;;6.38;3.05;;;;;;;;;;4897501;29;20108;-64
2022/11/18 02:55:57;;;;;;;6.13;3.22;;;;;;;;;;4897048;29;20112;-67
2022/11/18 02:58:24;;;;;;;6.72;2.92;;;;;;;;;;4896543;29;20049;-64
2022/11/18 03:00:58;;;;;;;4.88;3.13;;;;;;;;;;4896873;29;20045;-64
2022/11/18 03:03:34;;;;;;;7.43;3.33;;;;;;;;;;4896946;29;20048;-64
2022/11/18 03:06:19;;;;;;;7.57;3.10;;;;;;;;;;4895937;29;20044;-64
2022/11/18 03:08:51;;;;;;;7.47;3.25;;;;;;;;;;4896292;29;20052;-64
2022/11/18 03:11:17;;;;;;;5.75;3.10;;;;;;;;;;4896941;29;20049;-64
2022/11/18 03:14:06;;;;;;;7.88;3.28;;;;;;;;;;4896960;29;20045;-64
2022/11/18 03:16:37;;;;;;;10.38;3.28;;;;;;;;;;4895732;29;20075;-64
2022/11/18 03:19:10;;;;;;;7.32;3.33;;;;;;;;;;4910713;29;20402;-64
2022/11/18 03:21:38;;;;;;;6.25;2.90;;;;;;;;;;4911261;29;20096;-64
2022/11/18 03:24:10;;;;;;;4.22;2.70;;;;;;;;;;4896758;29;20048;-64
2022/11/18 03:26:39;;;;;;;2.53;1.90;;;;;;;;;;4896858;29;20552;-64
2022/11/18 03:29:20;;;;;;;2.63;1.30;;;;;;;;;;4896115;29;20498;-64
2022/11/18 03:31:48;;;;;;;2.53;1.17;;;;;;;;;;4896638;29;20100;-64
2022/11/18 03:34:44;;;;;;;0.82;0.82;;;;;;;;;;4896824;29;20429;-64
2022/11/18 03:37:12;;;;;;;1.65;0.95;;;;;;;;;;4892164;29;20057;-64
2022/11/18 03:39:41;;;;;;;1.00;0.80;;;;;;;;;;4896199;29;20459;-64
2022/11/18 03:42:11;;;;;;;2.25;0.82;;;;;;;;;;4896679;29;20120;-64
2022/11/18 03:44:39;;;;;;;2.05;0.75;;;;;;;;;;4895425;29;20045;-63
2022/11/18 03:47:09;;;;;;;1.85;1.25;;;;;;;;;;4896623;29;20462;-63
2022/11/18 03:49:39;;;;;;;2.35;0.80;;;;;;;;;;4896173;29;20414;-63
2022/11/18 03:52:09;;;;;;;1.48;0.77;;;;;;;;;;4896512;29;20407;-63
2022/11/18 03:54:38;;;;;;;2.35;0.80;;;;;;;;;;4896566;29;20047;-63
2022/11/18 03:57:24;;;;;;;1.08;0.80;;;;;;;;;;4896555;29;20041;-63
2022/11/18 03:59:52;;;;;;;1.35;0.70;;;;;;;;;;4896393;29;20041;-63
2022/11/18 04:02:20;;;;;;;2.13;1.00;;;;;;;;;;4898893;29;20506;-63
2022/11/18 04:04:48;;;;;;;0.63;0.60;;;;;;;;;;4899973;29;20051;-63
2022/11/18 04:07:23;;;;;;;1.17;0.60;;;;;;;;;;4899856;29;20041;-63
2022/11/18 04:09:55;;;;;;;0.68;0.60;;;;;;;;;;4900099;29;20054;-63
2022/11/18 04:12:22;;;;;;;1.88;0.90;;;;;;;;;;4914246;29;20056;-63
2022/11/18 04:14:51;;;;;;;0.85;0.63;;;;;;;;;;4899784;29;20052;-63
2022/11/18 04:17:22;;;;;;;0.88;0.70;;;;;;;;;;4899349;29;20048;-64
2022/11/18 04:19:48;;;;;;;0.70;0.70;;;;;;;;;;4899746;29;20105;-63
2022/11/18 04:22:15;;;;;;;0.50;0.50;;;;;;;;;;4914023;29;20048;-63
2022/11/18 04:24:41;;;;;;;0.57;0.50;;;;;;;;;;4899721;29;20401;-63
2022/11/18 04:27:07;;;;;;;1.67;0.63;;;;;;;;;;4899533;29;20399;-63
2022/11/18 04:29:34;;;;;;;1.65;0.50;;;;;;;;;;4898629;29;20037;-63
2022/11/18 04:32:01;;;;;;;0.80;0.57;;;;;;;;;;4899487;29;20056;-63
2022/11/18 04:34:27;;;;;;;0.57;0.47;;;;;;;;;;4914020;29;20041;-63
2022/11/18 04:36:54;;;;;;;1.75;0.75;;;;;;;;;;4899487;29;20055;-63
2022/11/18 04:39:20;;;;;;;0.80;0.68;;;;;;;;;;4898895;29;20116;-64
2022/11/18 04:41:56;;;;;;;1.85;0.50;;;;;;;;;;4899193;29;20040;-63
2022/11/18 04:44:26;;;;;;;0.88;0.50;;;;;;;;;;4899218;29;20502;-64
2022/11/18 04:46:54;;;;;;;0.65;0.40;;;;;;;;;;4913839;29;20037;-63
2022/11/18 04:49:21;;;;;;;0.40;0.40;;;;;;;;;;4898816;29;20051;-64
2022/11/18 04:51:47;;;;;;;1.52;0.52;;;;;;;;;;4899135;29;20052;-64
2022/11/18 04:54:14;;;;;;;0.30;0.30;;;;;;;;;;4913779;29;20052;-63
2022/11/18 04:56:42;;;;;;;0.60;0.40;;;;;;;;;;4899412;29;20112;-64
2022/11/18 04:59:14;;;;;;;;;;;;;;;;;;4912742;29;20053;-64
2022/11/18 05:01:41;;;;;;;0.40;0.40;;;;;;;;;;5370481;23;19940;-63
2022/11/18 05:04:11;;;;;;;0.35;0.35;;;;;;;;;;4899091;29;20045;-63
2022/11/18 05:06:37;;;;;;;2.88;0.50;;;;;;;;;;4898951;29;20048;-63
2022/11/18 05:09:04;;;;;;;1.67;0.90;;;;;;;;;;4898476;29;20040;-63
2022/11/18 05:14:16;;;;;;;0.90;0.40;;;;;;;;;;4897954;29;20100;-63
2022/11/18 05:16:43;;;;;;;0.65;0.60;;;;;;;;;;4897866;29;20406;-63
2022/11/18 05:19:09;;;;;;;1.35;0.65;;;;;;;;;;4898202;29;20045;-63
2022/11/18 05:21:36;;;;;;;0.88;0.80;;;;;;;;;;4912917;29;20675;-63
2022/11/18 05:24:03;;;;;;;0.57;0.57;;;;;;;;;;4897258;29;20048;-63
2022/11/18 05:26:29;;;;;;;0.47;0.47;;;;;;;;;;4898506;29;20047;-63
2022/11/18 05:28:56;;;;;;;0.95;0.63;;;;;;;;;;4897892;29;20462;-63
2022/11/18 05:31:22;;;;;;;1.27;0.70;;;;;;;;;;4897385;29;20056;-63
2022/11/18 05:33:49;;;;;;;0.85;0.70;;;;;;;;;;4898547;29;20052;-64
2022/11/18 05:36:16;;;;;;;1.40;0.98;;;;;;;;;;4897128;29;20569;-62
2022/11/18 05:38:43;;;;;;;1.10;0.70;;;;;;;;;;4897745;29;20501;-62
2022/11/18 05:41:09;;;;;;;3.03;0.98;;;;;;;;;;4898301;29;20383;-62
2022/11/18 05:43:36;;;;;;;0.82;0.68;;;;;;;;;;4897441;29;20044;-62
2022/11/18 05:46:02;;;;;;;1.05;0.70;;;;;;;;;;4897374;29;20048;-62
2022/11/18 05:48:29;;;;;;;1.90;1.20;;;;;;;;;;4896439;29;20113;-62
2022/11/18 05:50:55;;;;;;;2.85;1.30;;;;;;;;;;4898051;29;20055;-62
2022/11/18 05:53:23;;;;;;;2.53;0.90;;;;;;;;;;4912237;29;20516;-62
2022/11/18 05:55:49;;;;;;;1.10;0.93;;;;;;;;;;4898065;29;20048;-62
2022/11/18 05:58:16;;;;;;;2.22;1.52;;;;;;;;;;4897246;29;20048;-62
2022/11/18 06:00:44;;;;;;;1.50;0.77;;;;;;;;;;4897732;29;20044;-62
2022/11/18 06:03:19;;;;;;;0.70;0.60;;;;;;;;;;4897604;29;20052;-63
2022/11/18 06:05:52;;;;;;;1.08;0.60;;;;;;;;;;4897818;29;20080;-62
2022/11/18 06:08:20;;;;;;;1.95;1.00;;;;;;;;;;4897174;29;20505;-63
2022/11/18 06:10:47;;;;;;;2.30;1.42;;;;;;;;;;4897824;29;20485;-63
2022/11/18 06:13:17;;;;;;;1.88;0.80;;;;;;;;;;4912001;29;20053;-63
2022/11/18 06:15:43;;;;;;;3.13;2.08;;;;;;;;;;4896247;29;20052;-61
2022/11/18 06:18:19;;;;;;;3.55;1.60;;;;;;;;;;4897068;29;20044;-62
2022/11/18 06:20:45;;;;;;;3.45;1.80;;;;;;;;;;4897403;29;20040;-62
2022/11/18 06:23:12;;;;;;;7.30;5.00;;;;;;;;;;4897322;29;20392;-62
2022/11/18 06:25:39;;;;;;;3.92;2.42;;;;;;;;;;4895947;29;20084;-62
2022/11/18 06:28:06;;;;;;;2.63;1.80;;;;;;;;;;4896837;29;20055;-62
2022/11/18 06:30:33;;;;;;;2.00;1.52;;;;;;;;;;4897319;29;20056;-61
2022/11/18 06:32:59;;;;;;;1.98;1.23;;;;;;;;;;4897214;29;20044;-63
2022/11/18 06:35:25;;;;;;;9.10;5.43;;;;;;;;;;4897379;29;20052;-62
2022/11/18 06:37:52;;;;;;;3.10;2.08;;;;;;;;;;4896680;29;20048;-62
2022/11/18 06:40:18;;;;;;;1.67;1.10;;;;;;;;;;4897051;29;20051;-62
2022/11/18 06:45:30;;;;;;;2.78;0.80;;;;;;;;;;4897158;29;20044;-62
2022/11/18 06:47:57;;;;;;;4.38;2.40;;;;;;;;;;4896453;29;20041;-62
2022/11/18 06:50:23;;;;;;;1.83;1.15;;;;;;;;;;4911516;29;20073;-62
2022/11/18 06:52:49;;;;;;;1.85;1.08;;;;;;;;;;4897285;29;20052;-62
2022/11/18 06:55:16;;;;;;;2.08;1.30;;;;;;;;;;4896036;29;20056;-62
2022/11/18 06:57:42;;;;;;;4.68;1.65;;;;;;;;;;4896911;29;20071;-62
2022/11/18 07:00:09;;;;;;;1.98;1.38;;;;;;;;;;4898227;29;20040;-62
2022/11/18 07:02:36;;;;;;;2.75;1.45;;;;;;;;;;4897404;29;20048;-62
2022/11/18 07:05:03;;;;;;;1.58;1.38;;;;;;;;;;4900806;29;20405;-64
2022/11/18 07:07:29;;;;;;;3.63;1.50;;;;;;;;;;4900665;29;20049;-62
2022/11/18 07:09:56;;;;;;;1.30;1.20;;;;;;;;;;4902430;29;20040;-63
2022/11/18 07:12:22;;;;;;;4.13;1.90;;;;;;;;;;4902523;29;20049;-62
2022/11/18 07:14:48;;;;;;;2.17;1.38;;;;;;;;;;4900895;29;20045;-62
2022/11/18 07:17:15;;;;;;;2.10;1.67;;;;;;;;;;4900495;29;20048;-62
2022/11/18 07:19:41;;;;;;;1.67;1.45;;;;;;;;;;4899700;29;20057;-63
2022/11/18 07:22:08;;;;;;;4.35;1.80;;;;;;;;;;4914914;29;20104;-62
2022/11/18 07:24:34;;;;;;;3.65;2.53;;;;;;;;;;4899986;29;20509;-62
2022/11/18 07:27:00;;;;;;;1.70;1.60;;;;;;;;;;4913479;29;20051;-62
2022/11/18 07:29:27;;;;;;;1.75;1.33;;;;;;;;;;4897549;29;20558;-62
2022/11/18 07:31:53;;;;;;;2.45;1.30;;;;;;;;;;4896865;29;20052;-62
2022/11/18 07:34:20;;;;;;;4.75;2.30;;;;;;;;;;4896890;29;20120;-62
2022/11/18 07:36:46;;;;;;;4.63;2.60;;;;;;;;;;4899096;29;20041;-62
2022/11/18 07:39:13;;;;;;;4.55;2.97;;;;;;;;;;4900568;29;20052;-62
2022/11/18 07:41:40;;;;;;;3.42;2.20;;;;;;;;;;4900203;29;20049;-62
2022/11/18 07:44:06;;;;;;;5.45;3.60;;;;;;;;;;4900511;29;20044;-62
2022/11/18 07:46:34;;;;;;;3.15;2.60;;;;;;;;;;4899234;29;20070;-63
2022/11/18 07:49:02;;;;;;;6.57;2.83;;;;;;;;;;4899847;29;20064;-63
2022/11/18 07:51:30;;;;;;;2.83;1.70;;;;;;;;;;4899021;29;20044;-63
2022/11/18 07:53:57;;;;;;;2.38;2.05;;;;;;;;;;4914670;29;20056;-63
2022/11/18 07:56:23;;;;;;;5.57;2.08;;;;;;;;;;4900237;29;20052;-63
2022/11/18 07:58:53;;;;;;;2.85;2.40;;;;;;;;;;4899547;29;20496;-63
2022/11/18 08:01:21;;;;;;;2.38;1.90;;;;;;;;;;4899901;29;20045;-64
2022/11/18 08:03:48;;;;;;;7.45;3.80;;;;;;;;;;4900103;29;20119;-63
2022/11/18 08:06:15;;;;;;;7.43;2.38;;;;;;;;;;4900081;29;20273;-63
2022/11/18 08:08:42;;;;;;;4.60;2.35;;;;;;;;;;4899263;29;20482;-63
2022/11/18 08:11:10;;;;;;;4.05;2.90;;;;;;;;;;4899916;29;20045;-63
2022/11/18 08:13:37;;;;;;;2.97;2.50;;;;;;;;;;4900239;29;20502;-63
2022/11/18 08:16:04;;;;;;;5.18;2.97;;;;;;;;;;4900153;29;20067;-63
2022/11/18 08:18:31;;;;;;;3.75;2.97;;;;;;;;;;4899507;29;20075;-64
2022/11/18 08:21:01;;;;;;;6.15;4.18;;;;;;;;;;4900051;29;20040;-63
2022/11/18 08:23:28;;;;;;;5.93;3.88;;;;;;;;;;4899716;29;20096;-63
2022/11/18 08:26:07;;;;;;;6.65;4.03;;;;;;;;;;4899809;29;20603;-63
2022/11/18 08:28:34;;;;;;;4.90;3.35;;;;;;;;;;4899223;29;20044;-63
2022/11/18 08:31:07;;;;;;;3.08;2.72;;;;;;;;;;4898410;29;20123;-64
2022/11/18 08:33:33;;;;;;;4.65;2.83;;;;;;;;;;4899528;29;20047;-63
2022/11/18 08:36:04;;;;;;;3.80;2.55;;;;;;;;;;4899401;29;20386;-63
2022/11/18 08:38:30;;;;;;;2.67;2.28;;;;;;;;;;4913287;29;20052;-64
2022/11/18 08:40:57;;;;;;;2.30;1.95;;;;;;;;;;4899358;29;20040;-64
2022/11/18 08:43:23;;;;;;;3.90;2.42;;;;;;;;;;4898217;29;20045;-63
2022/11/18 08:45:50;;;;;;;3.83;2.80;;;;;;;;;;4899300;29;20410;-64
2022/11/18 08:48:16;;;;;;;4.53;2.72;;;;;;;;;;4912005;29;20051;-64
2022/11/18 08:50:43;;;;;;;4.32;2.95;;;;;;;;;;4899204;29;20045;-63
2022/11/18 08:53:09;;;;;;;4.97;3.08;;;;;;;;;;4900643;29;20045;-64
2022/11/18 08:55:35;;;;;;;5.63;2.90;;;;;;;;;;4913765;29;20089;-64
2022/11/18 08:58:02;;;;;;;6.25;2.90;;;;;;;;;;4899084;29;20454;-64
2022/11/18 09:00:28;;;;;;;6.28;2.92;;;;;;;;;;4899215;29;20045;-63
2022/11/18 09:02:55;;;;;;;4.10;2.78;;;;;;;;;;4898982;29;20052;-64
2022/11/18 09:05:21;;;;;;;6.28;2.65;;;;;;;;;;4899084;29;20036;-65
2022/11/18 09:07:47;;;;;;;5.15;3.70;;;;;;;;;;4912848;29;20051;-64
2022/11/18 09:10:14;;;;;;;3.00;2.75;;;;;;;;;;4897755;29;20052;-64
2022/11/18 09:12:41;;;;;;;8.35;2.97;;;;;;;;;;4898962;29;20056;-64
2022/11/18 09:15:07;;;;;;;3.08;2.65;;;;;;;;;;4913602;29;20044;-64
2022/11/18 09:17:40;;;;;;;3.45;2.33;;;;;;;;;;4897184;29;20041;-64
2022/11/18 09:20:06;;;;;;;3.80;3.38;;;;;;;;;;4899086;29;20161;-64
2022/11/18 09:22:34;;;;;;;3.67;2.92;;;;;;;;;;4898847;29;20045;-64
2022/11/18 09:25:01;;;;;;;4.22;2.60;;;;;;;;;;4899003;29;20045;-64
2022/11/18 09:27:27;;;;;;;5.15;3.20;;;;;;;;;;4897146;29;20525;-63
2022/11/18 09:29:54;;;;;;;4.28;2.63;;;;;;;;;;4898470;29;20454;-64
2022/11/18 09:32:20;;;;;;;4.22;2.67;;;;;;;;;;4898611;29;20129;-63
2022/11/18 09:34:46;;;;;;;5.40;2.83;;;;;;;;;;4882064;29;20058;-64
2022/11/18 09:37:13;;;;;;;4.32;2.33;;;;;;;;;;4897629;29;20060;-64
2022/11/18 09:39:39;;;;;;;3.30;2.05;;;;;;;;;;4898542;29;20044;-63
2022/11/18 09:42:05;;;;;;;2.75;1.95;;;;;;;;;;4913337;29;20048;-64
2022/11/18 09:44:50;;;;;;;4.85;2.30;;;;;;;;;;4898628;29;20085;-64
2022/11/18 09:47:23;;;;;;;5.03;2.10;;;;;;;;;;4898529;29;20048;-64
2022/11/18 09:49:50;;;;;;;4.30;2.00;;;;;;;;;;4898544;29;20070;-64
2022/11/18 09:52:17;;;;;;;3.13;1.85;;;;;;;;;;4912914;29;20048;-64
2022/11/18 09:54:43;;;;;;;4.00;1.85;;;;;;;;;;4898435;29;20100;-64
2022/11/18 09:57:30;;;;;;;3.05;1.65;;;;;;;;;;4912739;29;20048;-64
2022/11/18 09:59:57;;;;;;;2.85;1.85;;;;;;;;;;4897775;29;20045;-65
2022/11/18 10:02:41;;;;;;;3.28;1.60;;;;;;;;;;4897743;29;20117;-63
2022/11/18 10:05:18;;;;;;;2.97;1.48;;;;;;;;;;4912662;29;20056;-64
2022/11/18 10:08:04;;;;;;;1.60;1.23;;;;;;;;;;4897369;29;20458;-64
2022/11/18 10:10:37;;;;;;;3.40;2.15;;;;;;;;;;4897959;29;20044;-64
2022/11/18 10:13:12;;;;;;;2.65;1.52;;;;;;;;;;4897898;29;20049;-64
2022/11/18 10:15:42;;;;;;;3.17;1.95;;;;;;;;;;4897978;29;20399;-64
2022/11/18 10:18:15;;;;;;;2.83;1.80;;;;;;;;;;4897413;29;20531;-64
2022/11/18 10:21:11;;;;;;;2.13;1.75;;;;;;;;;;4897758;29;20450;-64
2022/11/18 10:23:44;;;;;;;3.58;1.67;;;;;;;;;;4897582;29;20104;-64
2022/11/18 10:26:11;;;;;;;1.55;1.20;;;;;;;;;;4897648;29;20402;-64
2022/11/18 10:28:38;;;;;;;2.78;1.50;;;;;;;;;;4897053;29;20112;-64
2022/11/18 10:31:05;;;;;;;2.72;1.55;;;;;;;;;;4896319;29;20055;-64
2022/11/18 10:33:32;;;;;;;3.00;1.27;;;;;;;;;;4896290;29;20081;-64
2022/11/18 10:36:07;;;;;;;1.48;1.25;;;;;;;;;;4897456;29;20055;-64
2022/11/18 10:38:34;;;;;;;3.65;1.10;;;;;;;;;;4896908;29;20048;-64
2022/11/18 10:41:02;;;;;;;1.25;0.95;;;;;;;;;;4897337;29;20116;-65
2022/11/18 10:43:50;;;;;;;2.38;1.23;;;;;;;;;;4897174;29;20044;-64
2022/11/18 10:46:23;;;;;;;3.28;1.70;;;;;;;;;;4911855;29;20044;-64
2022/11/18 10:49:08;;;;;;;2.30;1.20;;;;;;;;;;4896781;29;20048;-65
2022/11/18 10:51:58;;;;;;;2.03;1.42;;;;;;;;;;4911596;29;20048;-65
2022/11/18 10:54:24;;;;;;;3.05;1.30;;;;;;;;;;4888499;29;20064;-64
2022/11/18 10:56:52;;;;;;;1.88;1.20;;;;;;;;;;4897196;29;20045;-64
2022/11/18 10:59:46;;;;;;;2.28;1.50;;;;;;;;;;4911096;29;20079;-65
2022/11/18 11:02:13;;;;;;;;;;;;;;;;;;4911762;29;20045;-64
2022/11/18 11:04:40;;;;;;;3.53;1.60;;;;;;;;;;4897037;29;20014;-64
2022/11/18 11:07:19;;;;;;;2.33;1.75;;;;;;;;;;4897168;29;20491;-64
2022/11/18 11:09:57;;;;;;;2.80;1.60;;;;;;;;;;4895784;29;20049;-64
2022/11/18 11:12:24;;;;;;;3.83;2.10;;;;;;;;;;4910764;29;20056;-65
2022/11/18 11:14:50;;;;;;;4.00;1.80;;;;;;;;;;4895737;29;20041;-64
2022/11/18 11:17:20;;;;;;;2.00;1.50;;;;;;;;;;4896630;29;20048;-64
2022/11/18 11:19:51;;;;;;;2.65;1.13;;;;;;;;;;4896955;29;20135;-64
2022/11/18 11:22:18;;;;;;;1.65;1.17;;;;;;;;;;4896960;29;20045;-64
2022/11/18 11:24:44;;;;;;;2.10;1.20;;;;;;;;;;4911352;29;20533;-66
2022/11/18 11:27:14;;;;;;;4.03;1.60;;;;;;;;;;4895850;29;20049;-64
2022/11/18 11:30:03;;;;;;;5.40;1.52;;;;;;;;;;4896769;29;20069;-63
2022/11/18 11:32:37;;;;;;;4.22;1.50;;;;;;;;;;4896809;29;20120;-63
2022/11/18 11:35:09;;;;;;;4.53;1.70;;;;;;;;;;4896870;29;20056;-63
2022/11/18 11:37:57;;;;;;;2.53;1.80;;;;;;;;;;4895389;29;20045;-63
2022/11/18 11:40:29;;;;;;;4.35;1.65;;;;;;;;;;4897224;29;20053;-63
2022/11/18 11:43:14;;;;;;;4.18;1.30;;;;;;;;;;4896929;29;20072;-63
2022/11/18 11:45:59;;;;;;;5.40;1.92;;;;;;;;;;4896722;29;20041;-63
2022/11/18 11:48:38;;;;;;;3.45;1.50;;;;;;;;;;4911046;29;20045;-63
2022/11/18 11:51:11;;;;;;;6.82;2.10;;;;;;;;;;4897159;29;20096;-63
2022/11/18 11:53:43;;;;;;;6.47;2.55;;;;;;;;;;4898177;29;20423;-64
2022/11/18 11:56:17;;;;;;;6.75;2.38;;;;;;;;;;4895709;29;20143;-63
2022/11/18 11:59:04;;;;;;;8.48;2.60;;;;;;;;;;4910665;29;20421;-64
2022/11/18 12:01:40;;;;;;;7.57;2.55;;;;;;;;;;4896953;29;20064;-63
2022/11/18 12:04:15;;;;;;;8.20;5.22;;;;;;;;;;4911460;29;20049;-63
2022/11/18 12:06:45;;;;;;;10.75;7.25;;;;;;;;;;4911576;29;20446;-64
2022/11/18 12:09:17;;;;;;;16.17;6.40;;;;;;;;;;4896149;29;20041;-64
2022/11/18 12:11:47;;;;;;;9.20;4.87;;;;;;;;;;4897015;29;20141;-63
2022/11/18 12:14:25;;;;;;;13.10;7.30;;;;;;;;;;4896751;29;20044;-63
2022/11/18 12:17:03;;;;;;;4.65;2.90;;;;;;;;;;4895425;29;20058;-64
2022/11/18 12:19:29;;;;;;;5.40;2.13;;;;;;;;;;4910528;29;20063;-64
2022/11/18 12:22:04;;;;;;;6.18;2.55;;;;;;;;;;4897028;29;20354;-64
2022/11/18 12:24:41;;;;;;;6.03;2.28;;;;;;;;;;4899819;29;20374;-64
2022/11/18 12:27:11;;;;;;;7.35;2.10;;;;;;;;;;4914291;29;20059;-67
2022/11/18 12:29:40;;;;;;;6.65;2.20;;;;;;;;;;4899092;29;20051;-64
2022/11/18 12:32:25;;;;;;;3.65;1.88;;;;;;;;;;4899606;29;20045;-64
2022/11/18 12:34:57;;;;;;;6.00;2.55;;;;;;;;;;4914084;29;20048;-66
2022/11/18 12:37:23;;;;;;;6.53;2.80;;;;;;;;;;4899301;29;20386;-64
2022/11/18 12:39:57;;;;;;;7.03;2.33;;;;;;;;;;4914388;29;20089;-63
2022/11/18 12:45:35;;;;;;;4.35;1.90;;;;;;;;;;4899662;29;20109;-64
2022/11/18 12:48:02;;;;;;;6.07;1.60;;;;;;;;;;4898853;29;20505;-63
2022/11/18 12:50:48;;;;;;;7.38;2.45;;;;;;;;;;4899462;29;20055;-63
2022/11/18 12:53:30;;;;;;;3.15;1.52;;;;;;;;;;4913645;29;20052;-63
2022/11/18 12:55:56;;;;;;;3.80;1.73;;;;;;;;;;4899353;29;20537;-63
2022/11/18 12:58:24;;;;;;;8.00;1.73;;;;;;;;;;4898665;29;20505;-63
2022/11/18 13:01:04;;;;;;;9.13;2.88;;;;;;;;;;4899066;29;20052;-62
2022/11/18 13:03:32;;;;;;;3.85;1.70;;;;;;;;;;4898926;29;20082;-63
2022/11/18 13:06:01;;;;;;;6.45;2.08;;;;;;;;;;4913601;29;20111;-64
2022/11/18 13:08:28;;;;;;;5.65;2.08;;;;;;;;;;4898476;29;20045;-63
2022/11/18 13:13:43;;;;;;;4.25;1.50;;;;;;;;;;4899057;29;20509;-63
2022/11/18 13:19:04;;;;;;;3.10;1.57;;;;;;;;;;4898934;29;20119;-63
2022/11/18 13:24:17;;;;;;;5.65;1.90;;;;;;;;;;4899331;29;20428;-64
2022/11/18 13:26:44;;;;;;;6.68;1.73;;;;;;;;;;4899282;29;20041;-64
2022/11/18 13:29:12;;;;;;;6.00;1.83;;;;;;;;;;4898522;29;20076;-62
2022/11/18 13:31:46;;;;;;;16.98;2.40;;;;;;;;;;4899070;29;20052;-62
2022/11/18 13:34:12;;;;;;;;;;;;;;;;;;4899022;29;20048;-62
2022/11/18 13:36:42;;;;;;;7.60;1.55;;;;;;;;;;4900591;29;20337;-62
2022/11/18 13:39:16;;;;;;;3.83;2.13;;;;;;;;;;4900253;29;20040;-63
2022/11/18 13:41:43;;;;;;;3.75;1.50;;;;;;;;;;4902364;29;20104;-62
2022/11/18 13:44:17;;;;;;;3.80;1.60;;;;;;;;;;4899073;29;20390;-62
2022/11/18 13:46:44;;;;;;;7.40;2.92;;;;;;;;;;4900108;29;20092;-63
2022/11/18 13:49:13;;;;;;;5.40;2.08;;;;;;;;;;4913253;29;20044;-63
2022/11/18 13:51:40;;;;;;;4.22;1.70;;;;;;;;;;4899175;29;20040;-63
2022/11/18 13:54:09;;;;;;;6.53;2.05;;;;;;;;;;4899433;29;20045;-62
2022/11/18 13:56:36;;;;;;;8.32;2.20;;;;;;;;;;4899038;29;20053;-62
2022/11/18 13:59:04;;;;;;;7.78;2.35;;;;;;;;;;4898105;29;20052;-63
2022/11/18 14:01:51;;;;;;;5.38;2.45;;;;;;;;;;4898362;29;20531;-63
2022/11/18 14:04:22;;;;;;;4.72;1.75;;;;;;;;;;4898270;29;20040;-63
2022/11/18 14:06:48;;;;;;;7.63;2.00;;;;;;;;;;4898539;29;20498;-63
2022/11/18 14:09:18;;;;;;;4.05;1.77;;;;;;;;;;4898007;29;20048;-63
2022/11/18 14:12:00;;;;;;;9.23;2.20;;;;;;;;;;4898141;29;20051;-63
2022/11/18 14:14:31;;;;;;;3.10;1.63;;;;;;;;;;4898077;29;20052;-63
2022/11/18 14:17:24;;;;;;;4.95;2.10;;;;;;;;;;4896773;29;20057;-63
2022/11/18 14:19:51;;;;;;;5.53;2.25;;;;;;;;;;4896327;29;20094;-63
2022/11/18 14:22:22;;;;;;;7.65;2.88;;;;;;;;;;4912321;29;20051;-63
2022/11/18 14:24:53;;;;;;;8.80;2.40;;;;;;;;;;4897986;29;20048;-63
2022/11/18 14:27:38;;;;;;;7.18;3.08;;;;;;;;;;4897893;29;20104;-62
2022/11/18 14:30:23;;;;;;;6.80;2.17;;;;;;;;;;4897682;29;20055;-63
2022/11/18 14:33:08;;;;;;;6.93;3.00;;;;;;;;;;4897903;29;20060;-63
2022/11/18 14:35:34;;;;;;;7.50;2.35;;;;;;;;;;4898208;29;20045;-63
2022/11/18 14:38:07;;;;;;;5.90;1.90;;;;;;;;;;4896741;29;20052;-63
2022/11/18 14:40:58;;;;;;;7.18;1.95;;;;;;;;;;4897439;29;20132;-63
2022/11/18 14:43:25;;;;;;;7.57;2.88;;;;;;;;;;4897484;29;20044;-63
2022/11/18 14:45:57;;;;;;;11.35;2.88;;;;;;;;;;4897452;29;20044;-63
2022/11/18 14:48:24;;;;;;;7.70;2.40;;;;;;;;;;4880197;29;20044;-63
2022/11/18 14:50:58;;;;;;;6.47;2.20;;;;;;;;;;4912110;29;20053;-63
2022/11/18 14:53:25;;;;;;;3.92;2.40;;;;;;;;;;4897392;29;20058;-63
2022/11/18 14:55:52;;;;;;;7.50;2.30;;;;;;;;;;4897248;29;20048;-63
2022/11/18 14:58:19;;;;;;;4.10;2.35;;;;;;;;;;4895456;29;20505;-63
2022/11/18 15:00:47;;;;;;;7.15;2.72;;;;;;;;;;4897049;29;20044;-63
2022/11/18 15:03:13;;;;;;;5.60;2.72;;;;;;;;;;4895805;29;20553;-63
2022/11/18 15:05:40;;;;;;;7.22;3.17;;;;;;;;;;4897109;29;20072;-63
2022/11/18 15:08:07;;;;;;;5.63;2.30;;;;;;;;;;4895448;29;20417;-63
2022/11/18 15:10:34;;;;;;;3.13;2.10;;;;;;;;;;4911655;29;20512;-63
2022/11/18 15:13:00;;;;;;;4.00;1.88;;;;;;;;;;4897137;29;20108;-63
2022/11/18 15:15:27;;;;;;;15.68;3.88;;;;;;;;;;4911620;29;20049;-64
2022/11/18 15:17:53;;;;;;;4.03;2.05;;;;;;;;;;4896471;29;20048;-65
2022/11/18 15:20:21;;;;;;;4.35;2.13;;;;;;;;;;4897171;29;20123;-62
2022/11/18 15:22:50;;;;;;;4.72;2.20;;;;;;;;;;4896790;29;20492;-62